Colver, PA

5:08 PM EDT on September 18, 2014 (GMT -0400)
9th Street, Colver | Change Station
CLOSE
Current Station
Personal Weather Station
Location: Colver, PA
Elevation: 2256 ft
Nearby Weather Stations

Elev 2256 ft 40.54 °N, 78.78 °W | Updated 185 days ago

Partly Cloudy
Partly Cloudy
22.8 °F
Feels Like 22.8 °F
N
2.1
Wind Variable Wind from ENE
Gusts 3.8 mph

Today
High -- | Low -- °F
--% Chance of Precip.
Yesterday
High -- | Low -- °F
Precip. -- in
6:58 AM 7:19 PM
Waning Crescent, 24% visible
Pressure 30.08 in
Visibility 10.0 miles
Clouds Few 4800 ft
Dew Point 13.1 °F
Humidity 66%
Rainfall 0.00 in
Snow Depth Not available.
UV 2 out of 12
Pollen 3.60 out of 12
Air Quality Not available.
Flu Activity Not available.
METAR KJST 182054Z AUTO 35008KT 10SM FEW048 17/05 A3008 RMK AO2 SLP185 T01720050 58001

More Conditions Fewer Conditions

Pressure 30.08 in
Visibility 10.0 miles
Clouds Few 4800 ft
Dew Point 13.1 °F
Humidity 66%
Rainfall 0.00 in
Snow Depth Not available.
UV 2 out of 12
Pollen 3.60 out of 12
Air Quality Not available.
Flu Activity Not available.
METAR KJST 182054Z AUTO 35008KT 10SM FEW048 17/05 A3008 RMK AO2 SLP185 T01720050 58001

More Conditions Fewer Conditions

10-Day Weather Forecast

Almanac

Astronomy

Sep. 18, 2014 Rise Set
Actual Time 6:58 AM EDT 7:19 PM EDT
Civil Twilight 6:31 AM EDT 7:46 PM EDT
Nautical Twilight 5:59 AM EDT 8:18 PM EDT
Astronomical Twilight 5:26 AM EDT 8:51 PM EDT
Moon 1:48 AM EDT 4:09 PM EDT
Length of Visible Light 13h 14m
Length of Day
12h 20m
Tomorrow will be 2m 40s shorter.
Waning Crescent, 24% of the Moon is Illuminated
Today
Waning Crescent
Sep 24
New
Oct 1
First Quarter
Oct 8
Full
Oct 15
Last Quarter

Today's Extremes

State Highs State Lows

Community

WunderPhotos

Upload Photos

1,754,444 photos uploaded!

WunderBlogs® & News

By Dr. Jeff Masters
Director of Meteorology, Weather Underground
By Kari Strenfel
Meteorologist, Weather Underground
By Christopher C. Burt
Weather Historian, Weather Underground
September 18, 2014
September 18, 2014
September 18, 2014

Nearby

Snow Depth

Station Depth Elevation
No new snow has been reported.

Earthquake Activity

City Distance Mag. Time & Date
No recent earthquake activity has been reported nearby.
Minimum magnitude displayed is 2.5.

Coastal Water Temperatures

Place Temperature
No Stations Reporting

Nearby Weather Stations